Time,TemperatureF,DewpointF,PressureIn,WindDirection,WindDirectionDegrees,WindSpeedMPH,WindSpeedGustMPH,Humidity,HourlyPrecipIn,Conditions,Clouds,dailyrainin,SoftwareType,DateUTC
2013-09-08 00:02:00,-999.0,-99.9,29.91,WNW,287,0.0,0.0,-999,-99.99,,,-99.99,,2013-09-08 04:02:00,
2013-09-08 00:14:00,59.0,56.0,29.91,WNW,287,0.0,0.0,91,0.00,,,0.00,,2013-09-08 04:14:00,
2013-09-08 00:24:00,59.0,56.0,29.91,WNW,287,0.0,0.0,91,0.00,,,0.00,,2013-09-08 04:24:00,
2013-09-08 00:34:00,59.0,56.0,29.91,WNW,287,0.0,0.0,91,0.00,,,0.00,,2013-09-08 04:34:00,
2013-09-08 00:54:00,59.0,57.0,29.91,WNW,287,0.0,0.0,92,0.00,,,0.00,,2013-09-08 04:54:00,
2013-09-08 01:03:00,59.0,57.0,29.91,WNW,287,0.0,0.0,92,0.00,,,0.00,,2013-09-08 05:03:00,
2013-09-08 01:13:00,59.0,57.0,29.91,WNW,287,0.0,0.0,92,0.00,,,0.00,,2013-09-08 05:13:00,
2013-09-08 01:23:00,59.0,57.0,29.91,WNW,287,0.0,0.0,92,0.00,,,0.00,,2013-09-08 05:23:00,
2013-09-08 01:34:00,59.0,57.0,29.91,WNW,287,0.0,0.0,92,0.00,,,0.00,,2013-09-08 05:34:00,
2013-09-08 01:52:00,59.0,57.0,29.90,WNW,287,0.0,0.0,94,0.00,,,0.00,,2013-09-08 05:52:00,
2013-09-08 02:03:00,59.0,57.0,29.90,WNW,287,0.0,0.0,94,0.00,,,0.00,,2013-09-08 06:03:00,
2013-09-08 02:13:00,59.0,57.0,29.90,WNW,287,0.0,0.0,94,0.00,,,0.00,,2013-09-08 06:13:00,
2013-09-08 02:22:00,59.0,57.0,29.90,WNW,287,0.0,0.0,94,0.00,,,0.00,,2013-09-08 06:22:00,
2013-09-08 02:33:00,59.0,57.0,29.90,WNW,287,0.0,0.0,94,0.00,,,0.00,,2013-09-08 06:33:00,
2013-09-08 02:53:00,61.0,60.0,29.90,WNW,287,0.0,0.0,95,0.00,,,0.00,,2013-09-08 06:53:00,
2013-09-08 03:02:00,61.0,60.0,29.90,WNW,287,0.0,0.0,95,0.00,,,0.00,,2013-09-08 07:02:00,
2013-09-08 03:12:00,61.0,60.0,29.90,WNW,287,0.0,0.0,95,0.00,,,0.00,,2013-09-08 07:12:00,
2013-09-08 03:23:00,61.0,60.0,29.90,WNW,287,0.0,0.0,95,0.00,,,0.00,,2013-09-08 07:23:00,
2013-09-08 03:32:00,61.0,60.0,29.90,WNW,287,0.0,0.0,95,0.00,,,0.00,,2013-09-08 07:32:00,
2013-09-08 03:52:00,62.0,61.0,29.89,WNW,287,0.0,0.0,95,0.00,,,0.00,,2013-09-08 07:52:00,
2013-09-08 04:02:00,62.0,61.0,29.89,WNW,287,0.0,0.0,95,0.00,,,0.00,,2013-09-08 08:02:00,
2013-09-08 04:12:00,62.0,61.0,29.89,WNW,287,0.0,0.0,95,0.00,,,0.00,,2013-09-08 08:12:00,
2013-09-08 04:22:00,62.0,61.0,29.89,WNW,287,0.0,0.0,95,0.00,,,0.00,,2013-09-08 08:22:00,
2013-09-08 04:32:00,62.0,61.0,29.89,WNW,287,0.0,0.0,95,0.00,,,0.00,,2013-09-08 08:32:00,
2013-09-08 04:52:00,62.0,61.0,29.89,WNW,287,0.0,0.0,96,0.00,,,0.00,,2013-09-08 08:52:00,
2013-09-08 05:02:00,62.0,61.0,29.89,WNW,287,0.0,0.0,96,0.00,,,0.00,,2013-09-08 09:02:00,
2013-09-08 05:12:00,62.0,61.0,29.89,WNW,287,0.0,0.0,96,0.00,,,0.00,,2013-09-08 09:12:00,
2013-09-08 05:22:00,62.0,61.0,29.89,WNW,287,0.0,0.0,96,0.00,,,0.00,,2013-09-08 09:22:00,
2013-09-08 05:33:00,62.0,61.0,29.89,WNW,287,0.0,0.0,96,0.00,,,0.00,,2013-09-08 09:33:00,
2013-09-08 05:54:00,63.0,62.0,29.88,WNW,287,0.0,0.0,96,0.02,,,0.02,,2013-09-08 09:54:00,
2013-09-08 06:03:00,63.0,62.0,29.88,WNW,287,0.0,0.0,96,0.02,,,0.02,,2013-09-08 10:03:00,
2013-09-08 06:12:00,63.0,62.0,29.88,WNW,287,0.0,0.0,96,0.02,,,0.02,,2013-09-08 10:12:00,
2013-09-08 06:23:00,63.0,62.0,29.88,WNW,287,0.0,0.0,96,0.02,,,0.02,,2013-09-08 10:23:00,
2013-09-08 06:33:00,63.0,62.0,29.88,WNW,287,0.0,0.0,96,0.02,,,0.02,,2013-09-08 10:33:00,
2013-09-08 06:53:00,63.0,62.0,29.88,WNW,287,0.0,0.0,96,0.01,,,0.02,,2013-09-08 10:53:00,
2013-09-08 07:02:00,63.0,62.0,29.88,WNW,287,0.0,0.0,96,0.01,,,0.02,,2013-09-08 11:02:00,
2013-09-08 07:12:00,63.0,62.0,29.88,WNW,287,0.0,0.0,96,0.01,,,0.02,,2013-09-08 11:12:00,
2013-09-08 07:22:00,63.0,62.0,29.88,WNW,287,0.0,0.0,96,0.01,,,0.02,,2013-09-08 11:22:00,
2013-09-08 07:33:00,63.0,62.0,29.88,WNW,287,0.0,0.0,96,0.01,,,0.02,,2013-09-08 11:33:00,
2013-09-08 07:52:00,62.0,61.0,29.89,WNW,286,0.0,0.0,96,0.00,,,0.02,,2013-09-08 11:52:00,
2013-09-08 08:02:00,62.0,61.0,29.89,WNW,286,0.0,0.0,96,0.00,,,0.02,,2013-09-08 12:02:00,
2013-09-08 08:12:00,62.0,61.0,29.89,WNW,286,0.0,0.0,96,0.00,,,0.02,,2013-09-08 12:12:00,
2013-09-08 08:22:00,62.0,61.0,29.89,WNW,286,0.0,0.0,96,0.00,,,0.02,,2013-09-08 12:22:00,
2013-09-08 08:32:00,62.0,61.0,29.89,WNW,286,0.0,0.0,96,0.00,,,0.02,,2013-09-08 12:32:00,
2013-09-08 08:52:00,64.0,63.0,29.89,WNW,286,0.0,0.0,97,0.00,,,0.02,,2013-09-08 12:52:00,
2013-09-08 09:12:00,64.0,63.0,29.89,WNW,286,0.0,0.0,97,0.00,,,0.02,,2013-09-08 13:12:00,
2013-09-08 09:22:00,64.0,63.0,29.89,WNW,286,0.0,0.0,97,0.00,,,0.02,,2013-09-08 13:22:00,
2013-09-08 09:52:00,70.0,68.0,29.88,WNW,284,1.0,5.0,93,0.00,,,0.02,,2013-09-08 13:52:00,
2013-09-08 10:02:00,70.0,68.0,29.88,WNW,284,1.0,5.0,93,0.00,,,0.02,,2013-09-08 14:02:00,
2013-09-08 10:11:00,70.0,68.0,29.88,WNW,284,1.0,5.0,93,0.00,,,0.02,,2013-09-08 14:11:00,
2013-09-08 10:22:00,70.0,68.0,29.88,WNW,284,1.0,5.0,93,0.00,,,0.02,,2013-09-08 14:22:00,
2013-09-08 10:31:00,70.0,68.0,29.88,WNW,284,1.0,5.0,93,0.00,,,0.02,,2013-09-08 14:31:00,
2013-09-08 10:52:00,78.0,67.0,29.89,WNW,292,5.0,9.0,70,0.00,,,0.02,,2013-09-08 14:52:00,
2013-09-08 11:02:00,78.0,67.0,29.89,WNW,292,5.0,9.0,70,0.00,,,0.02,,2013-09-08 15:02:00,
2013-09-08 11:12:00,78.0,67.0,29.89,WNW,292,5.0,9.0,70,0.00,,,0.02,,2013-09-08 15:12:00,
2013-09-08 11:23:00,78.0,67.0,29.89,WNW,292,5.0,9.0,70,0.00,,,0.02,,2013-09-08 15:23:00,
2013-09-08 11:34:00,78.0,67.0,29.89,WNW,292,5.0,9.0,70,0.00,,,0.02,,2013-09-08 15:34:00,
2013-09-08 11:55:00,78.0,67.0,29.89,West,280,2.0,6.0,68,0.00,,,0.02,,2013-09-08 15:55:00,
2013-09-08 12:04:00,78.0,67.0,29.89,West,280,2.0,6.0,68,0.00,,,0.02,,2013-09-08 16:04:00,
2013-09-08 12:14:00,78.0,67.0,29.89,West,280,2.0,6.0,68,0.00,,,0.02,,2013-09-08 16:14:00,
2013-09-08 12:24:00,78.0,67.0,29.89,West,280,2.0,6.0,68,0.00,,,0.02,,2013-09-08 16:24:00,
2013-09-08 12:34:00,78.0,67.0,29.89,West,280,2.0,6.0,68,0.00,,,0.02,,2013-09-08 16:34:00,
2013-09-08 12:54:00,81.0,67.0,29.87,WNW,298,4.0,6.0,62,0.00,,,0.02,,2013-09-08 16:54:00,
2013-09-08 13:03:00,81.0,67.0,29.87,WNW,298,4.0,6.0,62,0.00,,,0.02,,2013-09-08 17:03:00,
2013-09-08 13:12:00,81.0,67.0,29.87,WNW,298,4.0,6.0,62,0.00,,,0.02,,2013-09-08 17:12:00,
2013-09-08 13:24:00,81.0,67.0,29.87,WNW,298,4.0,6.0,62,0.00,,,0.02,,2013-09-08 17:24:00,
2013-09-08 13:34:00,81.0,67.0,29.87,WNW,298,4.0,6.0,62,0.00,,,0.02,,2013-09-08 17:34:00,
2013-09-08 13:53:00,85.0,68.0,29.87,WNW,292,3.0,7.0,57,0.00,,,0.02,,2013-09-08 17:53:00,
2013-09-08 14:02:00,85.0,68.0,29.87,WNW,292,3.0,7.0,57,0.00,,,0.02,,2013-09-08 18:02:00,
2013-09-08 14:13:00,85.0,68.0,29.87,WNW,292,3.0,7.0,57,0.00,,,0.02,,2013-09-08 18:13:00,
2013-09-08 14:22:00,85.0,68.0,29.87,WNW,292,3.0,7.0,57,0.00,,,0.02,,2013-09-08 18:22:00,
2013-09-08 14:32:00,85.0,68.0,29.87,WNW,292,3.0,7.0,57,0.00,,,0.02,,2013-09-08 18:32:00,
2013-09-08 14:52:00,84.0,68.0,29.86,NNW,332,2.0,6.0,59,0.00,,,0.02,,2013-09-08 18:52:00,
2013-09-08 15:02:00,84.0,68.0,29.86,NNW,332,2.0,6.0,59,0.00,,,0.02,,2013-09-08 19:02:00,
2013-09-08 15:12:00,84.0,68.0,29.86,NNW,332,2.0,6.0,59,0.00,,,0.02,,2013-09-08 19:12:00,
2013-09-08 15:22:00,84.0,68.0,29.86,NNW,332,2.0,6.0,59,0.00,,,0.02,,2013-09-08 19:22:00,
2013-09-08 15:32:00,84.0,68.0,29.86,NNW,332,2.0,6.0,59,0.00,,,0.02,,2013-09-08 19:32:00,
2013-09-08 15:52:00,84.0,70.0,29.86,NNW,327,1.0,6.0,62,0.00,,,0.02,,2013-09-08 19:52:00,
2013-09-08 16:03:00,84.0,70.0,29.86,NNW,327,1.0,6.0,62,0.00,,,0.02,,2013-09-08 20:03:00,
2013-09-08 16:12:00,84.0,70.0,29.86,NNW,327,1.0,6.0,62,0.00,,,0.02,,2013-09-08 20:12:00,
2013-09-08 16:22:00,84.0,70.0,29.86,NNW,327,1.0,6.0,62,0.00,,,0.02,,2013-09-08 20:22:00,
2013-09-08 16:32:00,84.0,70.0,29.86,NNW,327,1.0,6.0,62,0.00,,,0.02,,2013-09-08 20:32:00,
2013-09-08 16:53:00,83.0,69.0,29.87,ENE,76,2.0,9.0,63,0.00,,,0.02,,2013-09-08 20:53:00,
2013-09-08 17:03:00,83.0,69.0,29.87,ENE,76,2.0,9.0,63,0.00,,,0.02,,2013-09-08 21:03:00,
2013-09-08 17:12:00,83.0,69.0,29.87,ENE,76,2.0,9.0,63,0.00,,,0.02,,2013-09-08 21:12:00,
2013-09-08 17:22:00,83.0,69.0,29.87,ENE,76,2.0,9.0,63,0.00,,,0.02,,2013-09-08 21:22:00,
2013-09-08 17:34:00,83.0,69.0,29.87,ENE,76,2.0,9.0,63,0.00,,,0.02,,2013-09-08 21:34:00,
2013-09-08 17:54:00,81.0,69.0,29.88,NNE,32,5.0,9.0,66,0.00,,,0.02,,2013-09-08 21:54:00,
2013-09-08 18:04:00,81.0,69.0,29.88,NNE,32,5.0,9.0,66,0.00,,,0.02,,2013-09-08 22:04:00,
2013-09-08 18:13:00,81.0,69.0,29.88,NNE,32,5.0,9.0,66,0.00,,,0.02,,2013-09-08 22:13:00,
2013-09-08 18:25:00,81.0,69.0,29.88,NNE,32,5.0,9.0,66,0.00,,,0.02,,2013-09-08 22:25:00,
2013-09-08 18:33:00,81.0,69.0,29.88,NNE,32,5.0,9.0,66,0.00,,,0.02,,2013-09-08 22:33:00,
2013-09-08 18:53:00,80.0,69.0,29.90,NE,44,0.0,2.0,70,0.00,,,0.02,,2013-09-08 22:53:00,
2013-09-08 19:04:00,80.0,69.0,29.90,NE,44,0.0,2.0,70,0.00,,,0.02,,2013-09-08 23:04:00,
2013-09-08 19:13:00,80.0,69.0,29.90,NE,44,0.0,2.0,70,0.00,,,0.02,,2013-09-08 23:13:00,
2013-09-08 19:22:00,80.0,69.0,29.90,NE,44,0.0,2.0,70,0.00,,,0.02,,2013-09-08 23:22:00,
2013-09-08 19:34:00,80.0,69.0,29.90,NE,44,0.0,2.0,70,0.00,,,0.02,,2013-09-08 23:34:00,
2013-09-08 19:53:00,76.0,68.0,29.92,NE,44,0.0,1.0,76,0.00,,,0.02,,2013-09-08 23:53:00,
2013-09-08 20:02:00,76.0,68.0,29.92,NE,44,0.0,1.0,76,0.00,,,0.02,,2013-09-09 00:02:00,
2013-09-08 20:12:00,76.0,68.0,29.92,NE,44,0.0,1.0,76,0.00,,,0.02,,2013-09-09 00:12:00,
2013-09-08 20:22:00,76.0,68.0,29.92,NE,44,0.0,1.0,76,0.00,,,0.02,,2013-09-09 00:22:00,
2013-09-08 20:32:00,76.0,68.0,29.92,NE,44,0.0,1.0,76,0.00,,,0.02,,2013-09-09 00:32:00,
2013-09-08 20:52:00,72.0,64.0,29.96,NE,46,0.0,5.0,77,0.00,,,0.02,,2013-09-09 00:52:00,
2013-09-08 21:01:00,72.0,64.0,29.96,NE,46,0.0,5.0,77,0.00,,,0.02,,2013-09-09 01:01:00,
2013-09-08 21:12:00,72.0,64.0,29.96,NE,46,0.0,5.0,77,0.00,,,0.02,,2013-09-09 01:12:00,
2013-09-08 21:21:00,72.0,64.0,29.96,NE,46,0.0,5.0,77,0.00,,,0.02,,2013-09-09 01:21:00,
2013-09-08 21:32:00,72.0,64.0,29.96,NE,46,0.0,5.0,77,0.00,,,0.02,,2013-09-09 01:32:00,
2013-09-08 21:52:00,70.0,64.0,29.99,NE,44,0.0,5.0,80,0.00,,,0.02,,2013-09-09 01:52:00,
2013-09-08 22:02:00,70.0,64.0,29.99,NE,44,0.0,5.0,80,0.00,,,0.02,,2013-09-09 02:02:00,
2013-09-08 22:11:00,70.0,64.0,29.99,NE,44,0.0,5.0,80,0.00,,,0.02,,2013-09-09 02:11:00,
2013-09-08 22:22:00,70.0,64.0,29.99,NE,44,0.0,5.0,80,0.00,,,0.02,,2013-09-09 02:22:00,
2013-09-08 22:32:00,70.0,64.0,29.99,NE,44,0.0,5.0,80,0.00,,,0.02,,2013-09-09 02:32:00,
2013-09-08 22:53:00,67.0,61.0,30.02,NE,44,2.0,5.0,81,0.00,,,0.02,,2013-09-09 02:53:00,
2013-09-08 23:03:00,67.0,61.0,30.02,NE,44,2.0,5.0,81,0.00,,,0.02,,2013-09-09 03:03:00,
2013-09-08 23:12:00,67.0,61.0,30.02,NE,44,2.0,5.0,81,0.00,,,0.02,,2013-09-09 03:12:00,
2013-09-08 23:22:00,67.0,61.0,30.02,NE,44,2.0,5.0,81,0.00,,,0.02,,2013-09-09 03:22:00,
2013-09-08 23:34:00,67.0,61.0,30.02,NE,44,2.0,5.0,81,0.00,,,0.02,,2013-09-09 03:34:00,
2013-09-08 23:55:00,65.0,58.0,30.04,NE,44,1.0,4.0,79,0.00,,,0.02,,2013-09-09 03:55:00,